Weather at Denham Aerodrome

Public forecast

Using degrees Celsius for public forecast. Weather courtesy of forecast.io.

Closest aviation weather report (METAR) to Denham Aerodrome

Closest report is RAF Northolt, 4.1 nm (7.6 km) ESE. Retrieved 2021/06/19 21:50 UTC (36 minutes ago):

EGWU 192150Z AUTO 06007KT 9999 // BKN012/// 14/12 Q1010

Closest aviation forecast (TAF) to Denham Aerodrome

Closest forecast is RAF Northolt, 4.1 nm (7.6 km) ESE. Retrieved 2021/06/19 21:52 UTC (34 minutes ago):

TAF EGWU 192044Z 1921/2015 CNL